Airfield :
LOGIN :

Register | Disclaimer

   EN    FR    IT 

 










Legend :    VFR   Marginal VFR   IFR   Intensive IFR   Very Intensive IFR
Visi :
Ceiling :
>= 8 km
>= 3000ft
5 to 8 km
1000 to 3000 ft
1500m to 5 km
500 to 1000 ft
800 to 1500m
200 to 500 ft
< 800m
< 200 ft
Symbols :   Thunderstorms  Fog  Heavy snow  Heavy precipitations  Wind > 20 kt
SIGMETs :     Misc.  Thunderstorms  Icing  Turbulence  Mountain Waves  Volcanic Ashes






- Airport Elevation : 302 ft
- IATA code : CGN


EDDK - Cologne Bonn

CURRENT METAR :
  • 110450Z 06001KT 9999 FEW020 10/09 Q1022 NOSIG

EXPIRED METARs :
  • 110420Z VRB01KT 9999 FEW020 09/08 Q1022 NOSIG
  • 110350Z 06002KT 9999 FEW020 09/08 Q1022 NOSIG
  • 110320Z 00000KT CAVOK 09/09 Q1021 NOSIG
  • 110250Z 04001KT CAVOK 10/10 Q1021 NOSIG
  • 110220Z VRB01KT CAVOK 11/10 Q1021 NOSIG

TAF TAF EDDK
Valid from the 11 at 00:00 until the 12 at 06:00 UTC


102300Z 1100/1206 VRB03KT 9999 FEW030
BECMG 1108/1111 32005KT
BECMG 1118/1121 VRB02KT



MET'MAP, your aeronautical weather chart ! - Copyright ORBIFLY December 2007 - Disclaimer

ORBIFLY MET'MAP TEAM :

Programming & Development : Alexandra Zaïnal
Concept & original design : Baudouin d'Aumeries
Assistance for programming : Marc-Olivier Méhu
Technical & hardware support : Manuel Goepfert

Contact : metmap@orbifly.com




SOURCES & CREDITS :

   NOAA